createdAt,value
2022-12-09T00:00:31.093Z,404.60
2022-12-09T00:01:31.306Z,400.70
2022-12-09T00:02:31.187Z,405.40
2022-12-09T00:03:31.155Z,406.50
2022-12-09T00:04:31.316Z,407.80
2022-12-09T00:05:30.981Z,406.30
2022-12-09T00:06:31.026Z,417.30
2022-12-09T00:07:30.979Z,409.50
2022-12-09T00:08:31.065Z,404.30
2022-12-09T00:09:30.940Z,422.60
2022-12-09T00:10:31.114Z,422.50
2022-12-09T00:11:31.158Z,423.60
2022-12-09T00:12:30.890Z,424.50
2022-12-09T00:13:30.935Z,423.50
2022-12-09T00:14:30.928Z,420.70
2022-12-09T00:15:30.907Z,422.80
2022-12-09T00:16:31.161Z,420.40
2022-12-09T00:17:30.913Z,429.10
2022-12-09T00:18:30.844Z,428.50
2022-12-09T00:19:30.926Z,427.50
2022-12-09T00:20:30.784Z,421.50
2022-12-09T00:21:31.004Z,230.00
2022-12-09T00:22:30.947Z,244.50
2022-12-09T00:23:30.769Z,292.00
2022-12-09T00:24:30.750Z,387.50
2022-12-09T00:25:30.800Z,370.20
2022-12-09T00:26:30.772Z,265.50
2022-12-09T00:27:30.754Z,207.20
2022-12-09T00:28:30.723Z,230.00
2022-12-09T00:29:30.741Z,256.00
2022-12-09T00:30:30.721Z,232.90
2022-12-09T00:31:30.872Z,236.20
2022-12-09T00:32:30.810Z,297.80
2022-12-09T00:33:30.885Z,825.80
2022-12-09T00:34:30.647Z,733.30
2022-12-09T00:35:30.628Z,446.40
2022-12-09T00:36:30.895Z,394.70
2022-12-09T00:37:30.609Z,441.20
2022-12-09T00:38:30.790Z,519.80
2022-12-09T00:39:30.581Z,457.00
2022-12-09T00:40:30.586Z,447.80
2022-12-09T00:41:30.570Z,451.00
2022-12-09T00:42:30.534Z,451.90
2022-12-09T00:43:30.739Z,429.40
2022-12-09T00:44:30.523Z,459.30
2022-12-09T00:45:30.717Z,439.20
2022-12-09T00:46:30.596Z,448.20
2022-12-09T00:47:30.571Z,454.10
2022-12-09T00:48:30.492Z,386.30
2022-12-09T00:49:30.529Z,461.10
2022-12-09T00:50:30.513Z,432.40
2022-12-09T00:51:30.518Z,370.90
2022-12-09T00:52:30.422Z,420.20
2022-12-09T00:53:30.591Z,417.30
2022-12-09T00:54:30.521Z,440.10
2022-12-09T00:55:30.702Z,426.10
2022-12-09T00:56:30.561Z,421.90
2022-12-09T00:57:30.570Z,417.00
2022-12-09T00:58:30.377Z,408.70
2022-12-09T00:59:30.334Z,413.20
2022-12-09T01:00:30.524Z,398.80
2022-12-09T01:01:30.597Z,411.30
2022-12-09T01:02:30.623Z,400.10
2022-12-09T01:03:30.932Z,391.70
2022-12-09T01:04:30.545Z,390.40
2022-12-09T01:05:30.334Z,386.70
2022-12-09T01:06:30.520Z,393.10
2022-12-09T01:07:30.374Z,392.10
2022-12-09T01:08:30.433Z,385.30
2022-12-09T01:09:30.331Z,393.10
2022-12-09T01:10:30.474Z,374.40
2022-12-09T01:11:30.622Z,385.00
2022-12-09T01:12:30.321Z,209.50
2022-12-09T01:13:30.279Z,204.20
2022-12-09T01:14:30.199Z,197.10
2022-12-09T01:15:30.206Z,210.20
2022-12-09T01:16:30.328Z,193.80
2022-12-09T01:17:30.430Z,234.80
2022-12-09T01:18:30.134Z,625.40
2022-12-09T01:19:30.234Z,452.00
2022-12-09T01:20:30.091Z,425.30
2022-12-09T01:21:30.138Z,665.20
2022-12-09T01:22:30.123Z,648.70
2022-12-09T01:23:30.308Z,423.40
2022-12-09T01:24:30.107Z,432.60
2022-12-09T01:25:30.268Z,426.60
2022-12-09T01:26:30.108Z,431.50
2022-12-09T01:27:30.221Z,420.40
2022-12-09T01:28:30.016Z,421.20
2022-12-09T01:29:30.021Z,376.00
2022-12-09T01:30:30.200Z,433.90
2022-12-09T01:31:30.113Z,424.20
2022-12-09T01:32:30.105Z,425.40
2022-12-09T01:33:30.001Z,412.00
2022-12-09T01:34:30.091Z,416.70
2022-12-09T01:35:30.022Z,420.60
2022-12-09T01:36:29.963Z,410.90
2022-12-09T01:37:30.024Z,421.30
2022-12-09T01:38:30.036Z,407.70
2022-12-09T01:39:29.889Z,423.30
2022-12-09T01:40:29.907Z,426.00
2022-12-09T01:41:30.180Z,429.70
2022-12-09T01:42:29.847Z,432.40
2022-12-09T01:43:30.026Z,429.20
2022-12-09T01:44:29.850Z,426.10
2022-12-09T01:45:29.819Z,268.80
2022-12-09T01:46:29.901Z,293.60
2022-12-09T01:47:29.847Z,290.60
2022-12-09T01:48:29.836Z,286.10
2022-12-09T01:49:29.743Z,288.80
2022-12-09T01:50:29.911Z,291.10
2022-12-09T01:51:30.535Z,206.80
2022-12-09T01:52:29.749Z,222.50
2022-12-09T01:53:29.729Z,218.90
2022-12-09T01:54:29.712Z,194.40
2022-12-09T01:55:29.969Z,170.20
2022-12-09T01:56:29.750Z,184.10
2022-12-09T01:57:29.725Z,241.90
2022-12-09T01:58:29.790Z,431.90
2022-12-09T01:59:29.796Z,455.20
2022-12-09T02:00:29.683Z,466.40
2022-12-09T02:01:30.021Z,479.30
2022-12-09T02:02:29.818Z,471.10
2022-12-09T02:03:29.797Z,465.50
2022-12-09T02:04:29.905Z,462.20
2022-12-09T02:05:29.744Z,460.10
2022-12-09T02:06:29.951Z,462.90
2022-12-09T02:07:29.555Z,453.70
2022-12-09T02:08:29.827Z,448.80
2022-12-09T02:09:29.774Z,450.40
2022-12-09T02:10:29.814Z,455.00
2022-12-09T02:11:29.546Z,443.00
2022-12-09T02:12:29.500Z,442.20
2022-12-09T02:13:29.821Z,445.60
2022-12-09T02:14:29.554Z,438.20
2022-12-09T02:15:29.769Z,340.80
2022-12-09T02:16:29.882Z,301.00
2022-12-09T02:17:29.519Z,277.80
2022-12-09T02:18:29.426Z,243.70
2022-12-09T02:19:29.500Z,250.70
2022-12-09T02:20:29.389Z,259.20
2022-12-09T02:21:29.522Z,237.00
2022-12-09T02:22:29.380Z,327.60
2022-12-09T02:23:29.747Z,845.50
2022-12-09T02:24:29.395Z,703.80
2022-12-09T02:25:29.595Z,445.20
2022-12-09T02:26:29.383Z,470.20
2022-12-09T02:27:29.344Z,483.10
2022-12-09T02:28:29.557Z,445.00
2022-12-09T02:29:29.287Z,483.80
2022-12-09T02:30:29.286Z,622.70
2022-12-09T02:31:29.618Z,601.90
2022-12-09T02:32:29.477Z,415.80
2022-12-09T02:33:29.477Z,492.40
2022-12-09T02:34:29.456Z,573.70
2022-12-09T02:35:29.331Z,398.70
2022-12-09T02:36:29.540Z,477.00
2022-12-09T02:37:29.226Z,481.90
2022-12-09T02:38:29.216Z,477.80
2022-12-09T02:39:29.430Z,467.00
2022-12-09T02:40:29.171Z,466.20
2022-12-09T02:41:29.257Z,473.30
2022-12-09T02:42:29.446Z,479.20
2022-12-09T02:43:29.149Z,471.10
2022-12-09T02:44:29.117Z,475.70
2022-12-09T02:45:29.256Z,476.10
2022-12-09T02:46:29.433Z,478.00
2022-12-09T02:47:29.174Z,474.50
2022-12-09T02:48:29.233Z,484.40
2022-12-09T02:49:29.431Z,480.70
2022-12-09T02:50:29.116Z,479.70
2022-12-09T02:51:29.307Z,471.70
2022-12-09T02:52:29.042Z,480.90
2022-12-09T02:53:29.021Z,476.00
2022-12-09T02:54:29.023Z,478.90
2022-12-09T02:55:29.087Z,415.10
2022-12-09T02:56:29.063Z,327.50
2022-12-09T02:57:29.112Z,349.00
2022-12-09T02:58:28.968Z,308.60
2022-12-09T02:59:28.949Z,329.80
2022-12-09T03:00:28.953Z,347.20
2022-12-09T03:01:29.371Z,315.70
2022-12-09T03:02:29.147Z,314.20
2022-12-09T03:03:29.336Z,312.50
2022-12-09T03:04:28.960Z,266.70
2022-12-09T03:05:29.224Z,328.50
2022-12-09T03:06:29.048Z,438.30
2022-12-09T03:07:29.057Z,418.70
2022-12-09T03:08:29.118Z,251.60
2022-12-09T03:09:28.928Z,224.60
2022-12-09T03:10:28.959Z,261.70
2022-12-09T03:11:29.122Z,261.30
2022-12-09T03:12:28.819Z,223.50
2022-12-09T03:13:28.898Z,343.90
2022-12-09T03:14:28.913Z,820.70
2022-12-09T03:15:28.771Z,705.30
2022-12-09T03:16:28.907Z,354.70
2022-12-09T03:17:28.823Z,448.80
2022-12-09T03:18:28.720Z,662.60
2022-12-09T03:19:29.056Z,498.00
2022-12-09T03:20:28.904Z,507.00
2022-12-09T03:21:29.028Z,515.10
2022-12-09T03:22:28.742Z,508.40
2022-12-09T03:23:28.980Z,481.50
2022-12-09T03:24:28.825Z,495.20
2022-12-09T03:25:28.649Z,506.40
2022-12-09T03:26:28.683Z,503.20
2022-12-09T03:27:28.635Z,495.80
2022-12-09T03:28:28.639Z,517.20
2022-12-09T03:29:28.657Z,493.40
2022-12-09T03:30:28.678Z,503.40
2022-12-09T03:31:28.713Z,498.80
2022-12-09T03:32:29.020Z,496.50
2022-12-09T03:33:28.759Z,445.20
2022-12-09T03:34:28.576Z,510.90
2022-12-09T03:35:28.578Z,289.80
2022-12-09T03:36:28.538Z,455.00
2022-12-09T03:37:28.572Z,482.90
2022-12-09T03:38:28.849Z,466.40
2022-12-09T03:39:28.494Z,465.10
2022-12-09T03:40:28.488Z,469.40
2022-12-09T03:41:28.591Z,468.00
2022-12-09T03:42:28.528Z,469.90
2022-12-09T03:43:28.437Z,463.20
2022-12-09T03:44:28.683Z,456.30
2022-12-09T03:45:28.821Z,454.90
2022-12-09T03:46:28.473Z,290.90
2022-12-09T03:47:28.521Z,311.00
2022-12-09T03:48:28.533Z,313.90
2022-12-09T03:49:28.400Z,278.60
2022-12-09T03:50:28.350Z,213.50
2022-12-09T03:51:28.616Z,192.50
2022-12-09T03:52:28.785Z,230.80
2022-12-09T03:53:28.324Z,278.10
2022-12-09T03:54:28.411Z,487.20
2022-12-09T03:55:28.299Z,666.10
2022-12-09T03:56:28.338Z,496.40
2022-12-09T03:57:28.583Z,506.00
2022-12-09T03:58:28.290Z,507.80
2022-12-09T03:59:28.267Z,510.30
2022-12-09T04:00:28.275Z,505.60
2022-12-09T04:01:28.315Z,502.70
2022-12-09T04:02:28.412Z,504.30
2022-12-09T04:03:28.554Z,500.30
2022-12-09T04:04:28.653Z,497.70
2022-12-09T04:05:28.454Z,491.40
2022-12-09T04:06:28.349Z,495.00
2022-12-09T04:07:28.395Z,432.10
2022-12-09T04:08:28.197Z,212.50
2022-12-09T04:09:28.178Z,207.90
2022-12-09T04:10:28.294Z,164.60
2022-12-09T04:11:28.340Z,200.90
2022-12-09T04:12:28.354Z,234.20
2022-12-09T04:13:28.235Z,302.80
2022-12-09T04:14:28.286Z,482.10
2022-12-09T04:15:28.147Z,721.30
2022-12-09T04:16:28.107Z,523.70
2022-12-09T04:17:28.157Z,519.00
2022-12-09T04:18:28.143Z,496.70
2022-12-09T04:19:28.353Z,504.70
2022-12-09T04:20:28.048Z,491.40
2022-12-09T04:21:28.017Z,494.10
2022-12-09T04:22:28.110Z,497.80
2022-12-09T04:23:27.974Z,433.10
2022-12-09T04:24:28.277Z,477.00
2022-12-09T04:25:27.973Z,491.90
2022-12-09T04:26:28.145Z,407.20
2022-12-09T04:27:28.213Z,463.60
2022-12-09T04:28:27.960Z,502.60
2022-12-09T04:29:28.173Z,499.60
2022-12-09T04:30:28.101Z,497.60
2022-12-09T04:31:28.149Z,496.70
2022-12-09T04:32:28.159Z,503.20
2022-12-09T04:33:27.857Z,491.00
2022-12-09T04:34:27.880Z,490.40
2022-12-09T04:35:27.844Z,488.90
2022-12-09T04:36:27.903Z,489.40
2022-12-09T04:37:27.825Z,493.90
2022-12-09T04:38:28.208Z,488.30
2022-12-09T04:39:27.853Z,487.80
2022-12-09T04:40:27.816Z,489.70
2022-12-09T04:41:27.825Z,492.40
2022-12-09T04:42:27.824Z,487.70
2022-12-09T04:43:27.791Z,400.10
2022-12-09T04:44:27.922Z,392.70
2022-12-09T04:45:27.985Z,398.10
2022-12-09T04:46:27.821Z,298.90
2022-12-09T04:47:27.981Z,204.60
2022-12-09T04:48:27.981Z,183.00
2022-12-09T04:49:27.682Z,224.90
2022-12-09T04:50:27.964Z,252.30
2022-12-09T04:51:28.012Z,248.40
2022-12-09T04:52:27.676Z,202.20
2022-12-09T04:53:27.935Z,194.10
2022-12-09T04:54:27.666Z,167.80
2022-12-09T04:55:27.625Z,238.60
2022-12-09T04:56:27.613Z,239.00
2022-12-09T04:57:27.826Z,290.80
2022-12-09T04:58:27.703Z,210.00
2022-12-09T04:59:27.682Z,212.60
2022-12-09T05:00:27.559Z,184.50
2022-12-09T05:01:31.246Z,154.70
2022-12-09T05:02:27.661Z,309.80
2022-12-09T05:03:27.639Z,289.40
2022-12-09T05:04:28.022Z,235.60
2022-12-09T05:05:27.807Z,176.50
2022-12-09T05:06:27.685Z,147.40
2022-12-09T05:07:27.588Z,167.20
2022-12-09T05:08:31.450Z,232.90
2022-12-09T05:09:27.854Z,308.20
2022-12-09T05:10:27.902Z,176.40
2022-12-09T05:11:27.576Z,292.10
2022-12-09T05:12:27.583Z,554.30
2022-12-09T05:13:27.528Z,559.70
2022-12-09T05:14:27.544Z,528.00
2022-12-09T05:15:27.631Z,438.10
2022-12-09T05:16:27.535Z,462.70
2022-12-09T05:17:27.663Z,467.90
2022-12-09T05:18:27.547Z,466.30
2022-12-09T05:19:27.426Z,470.10
2022-12-09T05:20:27.507Z,481.60
2022-12-09T05:21:27.510Z,479.50
2022-12-09T05:22:27.337Z,442.00
2022-12-09T05:23:27.677Z,427.70
2022-12-09T05:24:27.328Z,430.90
2022-12-09T05:25:27.621Z,424.70
2022-12-09T05:26:27.250Z,418.30
2022-12-09T05:27:27.238Z,311.90
2022-12-09T05:28:27.464Z,150.60
2022-12-09T05:29:27.652Z,239.20
2022-12-09T05:30:27.225Z,230.40
2022-12-09T05:31:27.575Z,204.50
2022-12-09T05:32:27.385Z,143.20
2022-12-09T05:33:27.326Z,156.60
2022-12-09T05:34:27.431Z,208.50
2022-12-09T05:35:27.363Z,308.90
2022-12-09T05:36:27.164Z,263.10
2022-12-09T05:37:27.422Z,259.10
2022-12-09T05:38:27.587Z,163.20
2022-12-09T05:39:27.347Z,124.80
2022-12-09T05:40:27.123Z,286.30
2022-12-09T05:41:27.330Z,269.50
2022-12-09T05:42:27.077Z,225.90
2022-12-09T05:43:27.129Z,161.90
2022-12-09T05:44:27.374Z,276.30
2022-12-09T05:45:27.375Z,564.40
2022-12-09T05:46:27.493Z,587.60
2022-12-09T05:47:27.111Z,573.00
2022-12-09T05:48:27.211Z,576.50
2022-12-09T05:49:27.211Z,560.90
2022-12-09T05:50:27.260Z,565.30
2022-12-09T05:51:27.205Z,559.60
2022-12-09T05:52:27.309Z,544.80
2022-12-09T05:53:27.150Z,544.00
2022-12-09T05:54:27.296Z,552.40
2022-12-09T05:55:27.354Z,544.90
2022-12-09T05:56:26.924Z,391.00
2022-12-09T05:57:26.939Z,442.10
2022-12-09T05:58:27.009Z,457.80
2022-12-09T05:59:27.107Z,472.60
2022-12-09T06:00:26.887Z,471.10
2022-12-09T06:01:27.161Z,474.10
2022-12-09T06:02:27.077Z,434.10
2022-12-09T06:03:27.273Z,470.20
2022-12-09T06:04:27.104Z,430.20
2022-12-09T06:05:27.306Z,341.90
2022-12-09T06:06:27.510Z,353.30
2022-12-09T06:07:26.919Z,270.00
2022-12-09T06:08:26.849Z,362.70
2022-12-09T06:09:27.204Z,666.70
2022-12-09T06:10:27.153Z,433.60
2022-12-09T06:11:26.988Z,400.30
2022-12-09T06:12:26.843Z,216.00
2022-12-09T06:13:26.745Z,417.90
2022-12-09T06:14:26.905Z,532.70
2022-12-09T06:15:32.944Z,999.90
2022-12-09T06:16:28.156Z,876.00
2022-12-09T06:17:27.044Z,507.10
2022-12-09T06:18:26.758Z,456.90
2022-12-09T06:19:26.810Z,748.10
2022-12-09T06:20:27.226Z,694.90
2022-12-09T06:21:26.737Z,552.20
2022-12-09T06:22:26.934Z,619.90
2022-12-09T06:23:26.935Z,752.70
2022-12-09T06:24:26.926Z,635.00
2022-12-09T06:25:26.743Z,575.90
2022-12-09T06:26:26.973Z,540.20
2022-12-09T06:27:26.553Z,543.60
2022-12-09T06:28:26.771Z,525.50
2022-12-09T06:29:26.977Z,528.70
2022-12-09T06:30:26.876Z,530.10
2022-12-09T06:31:26.745Z,506.70
2022-12-09T06:32:26.708Z,769.80
2022-12-09T06:33:53.145Z,348.60
2022-12-09T06:34:27.646Z,483.30
2022-12-09T06:35:26.853Z,474.40
2022-12-09T06:36:26.920Z,467.50
2022-12-09T06:37:26.442Z,448.10
2022-12-09T06:38:26.630Z,438.70
2022-12-09T06:39:26.779Z,427.80
2022-12-09T06:40:26.573Z,429.70
2022-12-09T06:41:26.473Z,421.60
2022-12-09T06:42:26.478Z,409.50
2022-12-09T06:43:26.489Z,426.60
2022-12-09T06:44:26.412Z,431.60
2022-12-09T06:45:26.442Z,434.40
2022-12-09T06:46:26.495Z,435.60
2022-12-09T06:47:26.487Z,435.70
2022-12-09T06:48:26.508Z,433.00
2022-12-09T06:49:26.388Z,408.70
2022-12-09T06:50:26.541Z,410.10
2022-12-09T06:51:26.707Z,387.90
2022-12-09T06:52:26.456Z,336.40
2022-12-09T06:53:26.548Z,255.00
2022-12-09T06:54:26.616Z,301.80
2022-12-09T06:55:26.262Z,269.40
2022-12-09T06:56:26.267Z,205.90
2022-12-09T06:57:26.270Z,181.20
2022-12-09T06:58:26.596Z,201.40
2022-12-09T06:59:26.299Z,342.40
2022-12-09T07:00:26.718Z,523.00
2022-12-09T07:01:26.744Z,452.50
2022-12-09T07:02:28.875Z,455.30
2022-12-09T07:03:27.245Z,450.40
2022-12-09T07:04:26.317Z,449.80
2022-12-09T07:05:26.277Z,453.20
2022-12-09T07:06:26.228Z,462.40
2022-12-09T07:07:26.475Z,465.00
2022-12-09T07:08:26.288Z,475.20
2022-12-09T07:09:26.168Z,469.60
2022-12-09T07:10:26.509Z,473.90
2022-12-09T07:11:26.482Z,463.00
2022-12-09T07:12:26.144Z,346.90
2022-12-09T07:13:26.001Z,203.20
2022-12-09T07:14:26.320Z,193.80
2022-12-09T07:15:26.406Z,205.20
2022-12-09T07:16:26.101Z,153.40
2022-12-09T07:17:26.301Z,311.30
2022-12-09T07:18:26.100Z,660.70
2022-12-09T07:19:26.274Z,617.30
2022-12-09T07:24:43.272Z,229.20
2022-12-09T07:25:43.388Z,190.40
2022-12-09T07:26:43.339Z,220.00
2022-12-09T07:27:43.008Z,278.10
2022-12-09T07:28:43.466Z,266.40
2022-12-09T07:29:43.284Z,268.80
2022-12-09T07:30:42.905Z,214.60
2022-12-09T07:31:43.096Z,267.10
2022-12-09T07:32:42.996Z,421.30
2022-12-09T07:33:43.059Z,577.80
2022-12-09T07:34:43.263Z,543.80
2022-12-09T07:35:43.289Z,552.20
2022-12-09T07:36:42.800Z,544.00
2022-12-09T07:37:43.278Z,495.30
2022-12-09T07:38:42.796Z,486.80
2022-12-09T07:39:43.078Z,492.00
2022-12-09T07:40:43.138Z,497.60
2022-12-09T07:41:42.845Z,489.80
2022-12-09T07:42:42.948Z,498.70
2022-12-09T07:43:42.756Z,495.30
2022-12-09T07:44:43.045Z,492.20
2022-12-09T07:45:42.859Z,490.70
2022-12-09T07:46:43.006Z,489.80
2022-12-09T07:47:43.154Z,492.50
2022-12-09T07:48:42.737Z,489.90
2022-12-09T07:49:42.984Z,494.90
2022-12-09T07:50:42.749Z,482.20
2022-12-09T07:51:42.749Z,485.50
2022-12-09T07:52:42.801Z,481.70
2022-12-09T07:53:42.633Z,486.40
2022-12-09T07:54:42.895Z,488.30
2022-12-09T07:55:42.750Z,398.30
2022-12-09T07:56:42.869Z,429.50
2022-12-09T07:57:43.023Z,431.10
2022-12-09T07:58:43.006Z,433.90
2022-12-09T07:59:42.820Z,429.40
2022-12-09T08:00:42.861Z,420.80
2022-12-09T08:01:43.000Z,309.10
2022-12-09T08:02:42.827Z,275.80
2022-12-09T08:03:42.774Z,177.00
2022-12-09T08:04:42.547Z,416.90
2022-12-09T08:05:42.680Z,411.00
2022-12-09T08:06:42.764Z,234.30
2022-12-09T08:07:44.698Z,257.80
2022-12-09T08:08:42.946Z,251.30
2022-12-09T08:09:43.011Z,365.40
2022-12-09T08:10:42.660Z,420.30
2022-12-09T08:11:42.656Z,441.90
2022-12-09T08:12:42.556Z,644.20
2022-12-09T08:13:42.622Z,431.20
2022-12-09T08:14:42.765Z,328.50
2022-12-09T08:15:42.825Z,752.20
2022-12-09T08:16:43.170Z,515.70
2022-12-09T08:17:42.759Z,544.00
2022-12-09T08:18:42.928Z,564.50
2022-12-09T08:19:42.824Z,416.70
2022-12-09T08:20:42.827Z,504.10
2022-12-09T08:21:42.545Z,699.70
2022-12-09T08:22:42.654Z,575.40
2022-12-09T08:23:42.711Z,999.90
2022-12-09T08:24:42.600Z,408.20
2022-12-09T08:25:42.563Z,469.70
2022-12-09T08:26:42.538Z,558.90
2022-12-09T08:27:42.587Z,999.90
2022-12-09T08:28:42.397Z,999.90
2022-12-09T08:29:42.296Z,999.90
2022-12-09T08:30:42.487Z,693.70
2022-12-09T08:31:42.850Z,747.60
2022-12-09T08:32:42.639Z,406.00
2022-12-09T08:33:42.493Z,875.00
2022-12-09T08:34:42.201Z,999.90
2022-12-09T08:35:42.425Z,999.90
2022-12-09T08:36:42.482Z,328.10
2022-12-09T08:37:42.450Z,647.60
2022-12-09T08:38:42.165Z,599.20
2022-12-09T08:39:42.503Z,573.30
2022-12-09T08:40:42.329Z,441.70
2022-12-09T08:41:42.499Z,574.20
2022-12-09T08:42:42.457Z,546.20
2022-12-09T08:43:42.112Z,616.70
2022-12-09T08:44:42.315Z,194.40
2022-12-09T08:45:42.518Z,475.70
2022-12-09T08:46:42.537Z,240.00
2022-12-09T08:47:42.138Z,67.90
2022-12-09T08:48:42.638Z,300.70
2022-12-09T08:49:42.136Z,471.70
2022-12-09T08:50:42.177Z,141.10
2022-12-09T08:51:42.055Z,219.00
2022-12-09T08:52:42.208Z,120.40
2022-12-09T08:53:42.209Z,219.70
2022-12-09T08:54:41.981Z,999.90
2022-12-09T08:55:42.186Z,189.00
2022-12-09T08:56:42.067Z,109.50
2022-12-09T08:57:41.923Z,147.60
2022-12-09T08:58:42.270Z,66.20
2022-12-09T08:59:45.267Z,999.90
2022-12-09T09:00:41.887Z,999.90
2022-12-09T09:01:42.256Z,999.90
2022-12-09T09:02:42.135Z,999.90
2022-12-09T09:03:42.057Z,999.90
2022-12-09T09:04:42.478Z,48.30
2022-12-09T09:05:42.356Z,254.90
2022-12-09T09:06:42.346Z,353.90
2022-12-09T09:07:42.045Z,236.90
2022-12-09T09:08:41.817Z,368.20
2022-12-09T09:09:42.178Z,261.30
2022-12-09T09:10:41.975Z,999.90
2022-12-09T09:11:42.214Z,999.90
2022-12-09T09:12:43.875Z,999.90
2022-12-09T09:13:42.197Z,999.90
2022-12-09T09:14:42.009Z,999.90
2022-12-09T09:15:42.186Z,999.90
2022-12-09T09:16:41.985Z,999.90
2022-12-09T09:17:46.627Z,999.90
2022-12-09T09:18:42.922Z,999.90
2022-12-09T09:19:41.715Z,999.90
2022-12-09T09:20:42.097Z,999.90
2022-12-09T09:21:41.774Z,999.90
2022-12-09T09:22:41.723Z,999.90
2022-12-09T09:23:42.021Z,999.90
2022-12-09T09:24:41.739Z,999.90
2022-12-09T09:25:42.069Z,999.90
2022-12-09T09:26:41.797Z,999.90
2022-12-09T09:27:41.611Z,999.90
2022-12-09T09:28:41.862Z,999.90
2022-12-09T09:29:41.840Z,999.90
2022-12-09T09:30:41.646Z,999.90
2022-12-09T09:31:42.093Z,999.90
2022-12-09T09:32:41.592Z,999.90
2022-12-09T09:33:41.774Z,999.90
2022-12-09T09:34:41.824Z,999.90
2022-12-09T09:35:41.622Z,999.90
2022-12-09T09:36:41.745Z,999.90
2022-12-09T09:37:41.723Z,999.90
2022-12-09T09:38:41.773Z,999.90
2022-12-09T09:39:41.926Z,999.90
2022-12-09T09:40:41.541Z,999.90
2022-12-09T09:41:41.873Z,999.90
2022-12-09T09:42:41.582Z,999.90
2022-12-09T09:43:41.532Z,999.90
2022-12-09T09:44:41.866Z,999.90
2022-12-09T09:45:41.825Z,999.90
2022-12-09T09:46:41.604Z,999.90
2022-12-09T09:47:41.692Z,999.90
2022-12-09T09:48:41.548Z,999.90
2022-12-09T09:49:41.399Z,999.90
2022-12-09T09:50:41.868Z,999.90
2022-12-09T09:51:41.437Z,999.90
2022-12-09T09:52:41.455Z,999.90
2022-12-09T09:53:41.748Z,999.90
2022-12-09T09:54:41.650Z,271.10
2022-12-09T09:55:41.507Z,125.00
2022-12-09T09:56:41.316Z,999.90
2022-12-09T09:57:41.258Z,245.00
2022-12-09T09:58:41.436Z,109.40
2022-12-09T09:59:41.400Z,362.70
2022-12-09T10:00:41.573Z,295.50
2022-12-09T10:01:41.477Z,999.90
2022-12-09T10:02:41.772Z,312.40
2022-12-09T10:03:41.734Z,999.90
2022-12-09T10:04:41.491Z,999.90
2022-12-09T10:05:41.444Z,999.90
2022-12-09T10:06:41.390Z,999.90
2022-12-09T10:07:41.361Z,999.90
2022-12-09T10:08:41.595Z,999.90
2022-12-09T10:09:41.514Z,999.90
2022-12-09T10:10:41.350Z,999.90
2022-12-09T10:11:41.781Z,999.90
2022-12-09T10:12:41.483Z,999.90
2022-12-09T10:13:41.323Z,999.90
2022-12-09T10:14:41.261Z,999.90
2022-12-09T10:15:41.274Z,999.90
2022-12-09T10:16:41.504Z,999.90
2022-12-09T10:17:41.305Z,999.90
2022-12-09T10:18:41.429Z,999.90
2022-12-09T10:19:41.097Z,999.90
2022-12-09T10:20:41.573Z,999.90
2022-12-09T10:21:41.164Z,999.90
2022-12-09T10:22:41.418Z,999.90
2022-12-09T10:23:41.153Z,999.90
2022-12-09T10:24:41.183Z,999.90
2022-12-09T10:25:41.096Z,999.90
2022-12-09T10:26:41.276Z,999.90
2022-12-09T10:27:41.246Z,999.90
2022-12-09T10:28:41.167Z,999.90
2022-12-09T10:29:40.897Z,999.90
2022-12-09T10:30:44.534Z,999.90
2022-12-09T10:31:41.297Z,999.90
2022-12-09T10:32:41.362Z,999.90
2022-12-09T10:33:41.006Z,999.90
2022-12-09T10:34:40.958Z,999.90
2022-12-09T10:35:41.529Z,999.90
2022-12-09T10:36:40.777Z,999.90
2022-12-09T10:37:40.935Z,999.90
2022-12-09T10:38:41.153Z,999.90
2022-12-09T10:39:40.780Z,999.90
2022-12-09T10:40:40.852Z,999.90
2022-12-09T10:41:40.949Z,999.90
2022-12-09T10:42:41.110Z,999.90
2022-12-09T10:43:41.031Z,999.90
2022-12-09T10:44:41.128Z,999.90
2022-12-09T10:46:15.526Z,999.90
2022-12-09T10:46:41.874Z,999.90
2022-12-09T10:47:41.036Z,999.90
2022-12-09T10:48:41.225Z,999.90
2022-12-09T10:49:40.853Z,999.90
2022-12-09T10:50:41.200Z,999.90
2022-12-09T10:51:41.056Z,999.90
2022-12-09T10:52:40.592Z,999.90
2022-12-09T10:53:40.782Z,999.90
2022-12-09T10:54:40.930Z,999.90
2022-12-09T10:55:40.595Z,999.90
2022-12-09T10:56:40.691Z,999.90
2022-12-09T10:57:40.682Z,999.90
2022-12-09T10:58:40.783Z,999.90
2022-12-09T10:59:40.883Z,999.90
2022-12-09T11:00:41.019Z,999.90
2022-12-09T11:01:40.780Z,999.90
2022-12-09T11:02:40.621Z,999.90
2022-12-09T11:03:40.654Z,999.90
2022-12-09T11:04:40.935Z,999.90
2022-12-09T11:05:40.767Z,999.90
2022-12-09T11:06:40.747Z,999.90
2022-12-09T11:07:41.065Z,999.90
2022-12-09T11:08:40.804Z,999.90
2022-12-09T11:09:40.737Z,999.90
2022-12-09T11:10:41.161Z,999.90
2022-12-09T11:11:40.564Z,999.90
2022-12-09T11:12:41.566Z,999.90
2022-12-09T11:13:40.540Z,999.90
2022-12-09T11:14:40.564Z,999.90
2022-12-09T11:15:40.589Z,999.90
2022-12-09T11:16:40.918Z,999.90
2022-12-09T11:17:40.710Z,999.90
2022-12-09T11:18:40.467Z,999.90
2022-12-09T11:19:40.876Z,999.90
2022-12-09T11:20:40.941Z,999.90
2022-12-09T11:21:40.395Z,999.90
2022-12-09T11:22:41.236Z,999.90
2022-12-09T11:23:40.332Z,999.90
2022-12-09T11:24:40.715Z,999.90
2022-12-09T11:25:40.538Z,999.90
2022-12-09T11:26:40.204Z,999.90
2022-12-09T11:27:40.660Z,999.90
2022-12-09T11:28:40.455Z,999.90
2022-12-09T11:29:40.350Z,999.90
2022-12-09T11:30:57.464Z,999.90
2022-12-09T11:31:41.756Z,999.90
2022-12-09T11:32:40.267Z,999.90
2022-12-09T11:33:40.247Z,999.90
2022-12-09T11:34:40.659Z,999.90
2022-12-09T11:35:40.284Z,999.90
2022-12-09T11:36:43.696Z,999.90
2022-12-09T11:37:40.099Z,999.90
2022-12-09T11:38:40.093Z,999.90
2022-12-09T11:39:40.076Z,999.90
2022-12-09T11:40:40.099Z,999.90
2022-12-09T11:41:40.053Z,999.90
2022-12-09T11:42:40.056Z,999.90
2022-12-09T11:43:40.041Z,999.90
2022-12-09T11:44:40.031Z,999.90
2022-12-09T11:45:40.054Z,999.90
2022-12-09T11:46:40.070Z,999.90
2022-12-09T11:48:20.225Z,999.90
2022-12-09T11:48:43.793Z,999.90
2022-12-09T11:49:40.001Z,999.90
2022-12-09T11:50:40.052Z,999.90
2022-12-09T11:51:39.940Z,999.90
2022-12-09T11:52:39.937Z,999.90
2022-12-09T11:53:39.977Z,999.90
2022-12-09T11:54:39.917Z,999.90
2022-12-09T11:55:39.922Z,999.90
2022-12-09T11:56:39.903Z,999.90
2022-12-09T11:57:39.861Z,999.90
2022-12-09T11:58:39.865Z,999.90
2022-12-09T11:59:39.852Z,999.90
2022-12-09T12:00:39.873Z,999.90
2022-12-09T12:01:39.853Z,999.90
2022-12-09T12:02:39.893Z,999.90
2022-12-09T12:03:39.814Z,999.90
2022-12-09T12:04:39.801Z,999.90
2022-12-09T12:05:39.816Z,999.90
2022-12-09T12:06:39.782Z,999.90
2022-12-09T12:07:39.824Z,999.90
2022-12-09T12:08:39.829Z,999.90
2022-12-09T12:09:39.762Z,999.90
2022-12-09T12:10:39.813Z,999.90
2022-12-09T12:11:39.731Z,999.90
2022-12-09T12:12:39.716Z,999.90
2022-12-09T12:13:39.710Z,999.90
2022-12-09T12:14:39.694Z,999.90
2022-12-09T12:15:39.719Z,999.90
2022-12-09T12:16:40.108Z,999.90
2022-12-09T12:17:39.692Z,999.90
2022-12-09T12:18:39.679Z,999.90
2022-12-09T12:19:39.628Z,999.90
2022-12-09T12:20:39.660Z,999.90
2022-12-09T12:21:39.611Z,999.90
2022-12-09T12:22:39.613Z,999.90
2022-12-09T12:23:39.586Z,999.90
2022-12-09T12:24:39.570Z,999.90
2022-12-09T12:25:39.604Z,999.90
2022-12-09T12:26:39.535Z,999.90
2022-12-09T12:27:39.530Z,999.90
2022-12-09T12:28:39.527Z,999.90
2022-12-09T12:29:39.510Z,999.90
2022-12-09T12:30:39.561Z,999.90
2022-12-09T12:31:39.557Z,999.90
2022-12-09T12:32:39.577Z,999.90